sensor_id;sensor_type;location;lat;lon;timestamp;P1;durP1;ratioP1;P2;durP2;ratioP2
65033;SDS011;51601;51.356;12.458;2022-10-19T00:03:10;33.13;;;12.70;;
65033;SDS011;51601;51.356;12.458;2022-10-19T00:07:24;37.65;;;12.10;;
65033;SDS011;51601;51.356;12.458;2022-10-19T00:11:40;38.58;;;13.52;;
65033;SDS011;51601;51.356;12.458;2022-10-19T00:15:55;40.17;;;13.07;;
65033;SDS011;51601;51.356;12.458;2022-10-19T00:20:09;37.33;;;12.77;;
65033;SDS011;51601;51.356;12.458;2022-10-19T00:24:23;35.47;;;12.43;;
65033;SDS011;51601;51.356;12.458;2022-10-19T00:28:38;30.90;;;12.20;;
65033;SDS011;51601;51.356;12.458;2022-10-19T00:32:52;37.27;;;12.43;;
65033;SDS011;51601;51.356;12.458;2022-10-19T00:37:06;35.50;;;12.93;;
65033;SDS011;51601;51.356;12.458;2022-10-19T00:41:20;34.15;;;13.13;;
65033;SDS011;51601;51.356;12.458;2022-10-19T00:45:37;38.97;;;13.80;;
65033;SDS011;51601;51.356;12.458;2022-10-19T00:49:51;40.80;;;12.40;;
65033;SDS011;51601;51.356;12.458;2022-10-19T00:54:06;34.88;;;13.35;;
65033;SDS011;51601;51.356;12.458;2022-10-19T00:58:21;35.67;;;12.40;;
65033;SDS011;51601;51.356;12.458;2022-10-19T01:02:36;32.92;;;12.77;;
65033;SDS011;51601;51.356;12.458;2022-10-19T01:06:50;36.33;;;13.30;;
65033;SDS011;51601;51.356;12.458;2022-10-19T01:11:08;34.15;;;12.23;;
65033;SDS011;51601;51.356;12.458;2022-10-19T01:15:32;31.07;;;12.30;;
65033;SDS011;51601;51.356;12.458;2022-10-19T01:25:02;43.25;;;12.85;;
65033;SDS011;51601;51.356;12.458;2022-10-19T01:29:32;42.37;;;12.73;;
65033;SDS011;51601;51.356;12.458;2022-10-19T01:34:05;37.92;;;12.70;;
65033;SDS011;51601;51.356;12.458;2022-10-19T01:38:27;38.17;;;13.20;;
65033;SDS011;51601;51.356;12.458;2022-10-19T01:42:47;37.67;;;12.63;;
65033;SDS011;51601;51.356;12.458;2022-10-19T01:47:13;37.50;;;12.50;;
65033;SDS011;51601;51.356;12.458;2022-10-19T01:51:30;35.83;;;12.85;;
65033;SDS011;51601;51.356;12.458;2022-10-19T01:55:48;39.72;;;12.95;;
65033;SDS011;51601;51.356;12.458;2022-10-19T02:00:04;35.23;;;12.23;;
65033;SDS011;51601;51.356;12.458;2022-10-19T02:04:24;38.55;;;12.77;;
65033;SDS011;51601;51.356;12.458;2022-10-19T02:08:39;35.03;;;12.20;;
65033;SDS011;51601;51.356;12.458;2022-10-19T02:12:56;34.07;;;12.37;;
65033;SDS011;51601;51.356;12.458;2022-10-19T02:17:12;36.88;;;12.18;;
65033;SDS011;51601;51.356;12.458;2022-10-19T02:21:30;31.80;;;12.07;;
65033;SDS011;51601;51.356;12.458;2022-10-19T02:25:44;31.87;;;11.97;;
65033;SDS011;51601;51.356;12.458;2022-10-19T02:29:58;29.23;;;12.00;;
65033;SDS011;51601;51.356;12.458;2022-10-19T02:34:12;35.70;;;12.30;;
65033;SDS011;51601;51.356;12.458;2022-10-19T02:38:27;31.20;;;11.60;;
65033;SDS011;51601;51.356;12.458;2022-10-19T02:42:42;32.90;;;11.37;;
65033;SDS011;51601;51.356;12.458;2022-10-19T02:47:01;34.45;;;11.27;;
65033;SDS011;51601;51.356;12.458;2022-10-19T02:51:25;29.05;;;11.27;;
65033;SDS011;51601;51.356;12.458;2022-10-19T02:55:41;34.53;;;11.20;;
65033;SDS011;51601;51.356;12.458;2022-10-19T02:59:56;30.00;;;11.50;;
65033;SDS011;51601;51.356;12.458;2022-10-19T03:04:10;35.72;;;11.80;;
65033;SDS011;51601;51.356;12.458;2022-10-19T03:08:24;36.20;;;11.43;;
65033;SDS011;51601;51.356;12.458;2022-10-19T03:12:39;31.30;;;11.75;;
65033;SDS011;51601;51.356;12.458;2022-10-19T03:16:52;33.30;;;12.45;;
65033;SDS011;51601;51.356;12.458;2022-10-19T03:21:07;29.52;;;11.82;;
65033;SDS011;51601;51.356;12.458;2022-10-19T03:25:22;31.80;;;11.23;;
65033;SDS011;51601;51.356;12.458;2022-10-19T03:29:38;26.13;;;11.68;;
65033;SDS011;51601;51.356;12.458;2022-10-19T03:33:52;32.25;;;11.73;;
65033;SDS011;51601;51.356;12.458;2022-10-19T03:38:06;28.37;;;11.50;;
65033;SDS011;51601;51.356;12.458;2022-10-19T03:42:20;32.05;;;11.02;;
65033;SDS011;51601;51.356;12.458;2022-10-19T03:46:36;27.45;;;10.98;;
65033;SDS011;51601;51.356;12.458;2022-10-19T03:50:56;27.23;;;11.47;;
65033;SDS011;51601;51.356;12.458;2022-10-19T03:55:11;31.20;;;11.32;;
65033;SDS011;51601;51.356;12.458;2022-10-19T03:59:24;32.03;;;11.50;;
65033;SDS011;51601;51.356;12.458;2022-10-19T04:03:40;32.55;;;10.27;;
65033;SDS011;51601;51.356;12.458;2022-10-19T04:07:54;25.17;;;11.03;;
65033;SDS011;51601;51.356;12.458;2022-10-19T04:12:08;29.08;;;10.85;;
65033;SDS011;51601;51.356;12.458;2022-10-19T04:16:22;32.13;;;10.88;;
65033;SDS011;51601;51.356;12.458;2022-10-19T04:20:39;24.17;;;9.53;;
65033;SDS011;51601;51.356;12.458;2022-10-19T04:24:54;25.63;;;10.05;;
65033;SDS011;51601;51.356;12.458;2022-10-19T04:29:08;26.98;;;10.38;;
65033;SDS011;51601;51.356;12.458;2022-10-19T04:33:23;25.10;;;10.20;;
65033;SDS011;51601;51.356;12.458;2022-10-19T04:37:38;27.33;;;9.82;;
65033;SDS011;51601;51.356;12.458;2022-10-19T04:41:52;26.13;;;9.90;;
65033;SDS011;51601;51.356;12.458;2022-10-19T04:46:06;30.55;;;10.30;;
65033;SDS011;51601;51.356;12.458;2022-10-19T04:50:21;27.47;;;10.03;;
65033;SDS011;51601;51.356;12.458;2022-10-19T04:54:40;31.98;;;10.48;;
65033;SDS011;51601;51.356;12.458;2022-10-19T04:58:55;28.95;;;10.40;;
65033;SDS011;51601;51.356;12.458;2022-10-19T05:03:09;30.67;;;10.70;;
65033;SDS011;51601;51.356;12.458;2022-10-19T05:07:23;27.58;;;10.40;;
65033;SDS011;51601;51.356;12.458;2022-10-19T05:11:38;35.58;;;10.65;;
65033;SDS011;51601;51.356;12.458;2022-10-19T05:15:55;26.60;;;10.20;;
65033;SDS011;51601;51.356;12.458;2022-10-19T05:20:10;29.85;;;11.55;;
65033;SDS011;51601;51.356;12.458;2022-10-19T05:24:24;30.45;;;11.70;;
65033;SDS011;51601;51.356;12.458;2022-10-19T05:28:39;25.52;;;11.10;;
65033;SDS011;51601;51.356;12.458;2022-10-19T05:32:52;28.40;;;11.17;;
65033;SDS011;51601;51.356;12.458;2022-10-19T05:37:06;32.38;;;11.57;;
65033;SDS011;51601;51.356;12.458;2022-10-19T05:41:20;23.42;;;9.43;;
65033;SDS011;51601;51.356;12.458;2022-10-19T05:45:36;24.87;;;10.17;;
65033;SDS011;51601;51.356;12.458;2022-10-19T05:49:51;22.90;;;8.55;;
65033;SDS011;51601;51.356;12.458;2022-10-19T05:54:05;25.13;;;9.25;;
65033;SDS011;51601;51.356;12.458;2022-10-19T05:58:19;23.33;;;9.50;;
65033;SDS011;51601;51.356;12.458;2022-10-19T06:02:34;21.13;;;9.20;;
65033;SDS011;51601;51.356;12.458;2022-10-19T06:06:48;19.27;;;8.07;;
65033;SDS011;51601;51.356;12.458;2022-10-19T06:11:05;17.88;;;7.65;;
65033;SDS011;51601;51.356;12.458;2022-10-19T06:15:20;20.63;;;7.80;;
65033;SDS011;51601;51.356;12.458;2022-10-19T06:19:35;21.25;;;8.88;;
65033;SDS011;51601;51.356;12.458;2022-10-19T06:23:49;19.48;;;7.80;;
65033;SDS011;51601;51.356;12.458;2022-10-19T06:28:03;19.03;;;9.20;;
65033;SDS011;51601;51.356;12.458;2022-10-19T06:32:17;24.30;;;7.60;;
65033;SDS011;51601;51.356;12.458;2022-10-19T06:36:33;19.50;;;8.20;;
65033;SDS011;51601;51.356;12.458;2022-10-19T06:40:47;23.70;;;8.33;;
65033;SDS011;51601;51.356;12.458;2022-10-19T06:45:01;23.05;;;8.18;;
65033;SDS011;51601;51.356;12.458;2022-10-19T06:49:14;21.73;;;8.27;;
65033;SDS011;51601;51.356;12.458;2022-10-19T06:53:29;21.85;;;8.25;;
65033;SDS011;51601;51.356;12.458;2022-10-19T06:57:45;17.40;;;7.73;;
65033;SDS011;51601;51.356;12.458;2022-10-19T07:01:58;20.02;;;7.90;;
65033;SDS011;51601;51.356;12.458;2022-10-19T07:06:12;18.70;;;7.53;;
65033;SDS011;51601;51.356;12.458;2022-10-19T07:10:28;18.03;;;7.87;;
65033;SDS011;51601;51.356;12.458;2022-10-19T07:14:41;20.33;;;7.68;;
65033;SDS011;51601;51.356;12.458;2022-10-19T07:18:55;20.70;;;8.15;;
65033;SDS011;51601;51.356;12.458;2022-10-19T07:23:09;17.97;;;7.80;;
65033;SDS011;51601;51.356;12.458;2022-10-19T07:27:24;20.88;;;8.95;;
65033;SDS011;51601;51.356;12.458;2022-10-19T07:31:37;21.33;;;7.80;;
65033;SDS011;51601;51.356;12.458;2022-10-19T07:35:57;22.58;;;8.88;;
65033;SDS011;51601;51.356;12.458;2022-10-19T07:40:11;21.67;;;8.10;;
65033;SDS011;51601;51.356;12.458;2022-10-19T07:44:27;21.00;;;7.70;;
65033;SDS011;51601;51.356;12.458;2022-10-19T07:48:40;16.40;;;7.75;;
65033;SDS011;51601;51.356;12.458;2022-10-19T07:52:55;18.77;;;7.70;;
65033;SDS011;51601;51.356;12.458;2022-10-19T07:57:09;20.10;;;6.85;;
65033;SDS011;51601;51.356;12.458;2022-10-19T08:01:26;16.73;;;6.65;;
65033;SDS011;51601;51.356;12.458;2022-10-19T08:05:41;16.73;;;6.77;;
65033;SDS011;51601;51.356;12.458;2022-10-19T08:09:54;19.92;;;6.53;;
65033;SDS011;51601;51.356;12.458;2022-10-19T08:14:09;21.65;;;7.03;;
65033;SDS011;51601;51.356;12.458;2022-10-19T08:18:25;17.67;;;7.10;;
65033;SDS011;51601;51.356;12.458;2022-10-19T08:22:38;14.03;;;6.57;;
65033;SDS011;51601;51.356;12.458;2022-10-19T08:26:52;16.77;;;6.45;;
65033;SDS011;51601;51.356;12.458;2022-10-19T08:31:10;15.95;;;6.43;;
65033;SDS011;51601;51.356;12.458;2022-10-19T08:35:26;13.13;;;5.97;;
65033;SDS011;51601;51.356;12.458;2022-10-19T08:39:41;17.25;;;5.95;;
65033;SDS011;51601;51.356;12.458;2022-10-19T08:43:58;16.30;;;5.85;;
65033;SDS011;51601;51.356;12.458;2022-10-19T08:48:24;18.20;;;5.47;;
65033;SDS011;51601;51.356;12.458;2022-10-19T08:52:42;13.27;;;5.13;;
65033;SDS011;51601;51.356;12.458;2022-10-19T08:57:01;14.43;;;5.55;;
65033;SDS011;51601;51.356;12.458;2022-10-19T09:01:27;10.80;;;4.75;;
65033;SDS011;51601;51.356;12.458;2022-10-19T09:05:50;16.13;;;5.70;;
65033;SDS011;51601;51.356;12.458;2022-10-19T09:10:17;11.32;;;4.60;;
65033;SDS011;51601;51.356;12.458;2022-10-19T09:14:37;12.85;;;4.97;;
65033;SDS011;51601;51.356;12.458;2022-10-19T09:18:58;11.13;;;3.93;;
65033;SDS011;51601;51.356;12.458;2022-10-19T09:23:17;10.48;;;4.00;;
65033;SDS011;51601;51.356;12.458;2022-10-19T09:27:35;11.18;;;3.92;;
65033;SDS011;51601;51.356;12.458;2022-10-19T09:31:52;13.87;;;4.73;;
65033;SDS011;51601;51.356;12.458;2022-10-19T09:36:07;13.15;;;3.70;;
65033;SDS011;51601;51.356;12.458;2022-10-19T09:40:38;9.07;;;3.00;;
65033;SDS011;51601;51.356;12.458;2022-10-19T09:44:53;12.52;;;3.05;;
65033;SDS011;51601;51.356;12.458;2022-10-19T09:49:07;10.63;;;3.07;;
65033;SDS011;51601;51.356;12.458;2022-10-19T09:53:21;9.35;;;2.70;;
65033;SDS011;51601;51.356;12.458;2022-10-19T09:57:40;7.40;;;2.70;;
65033;SDS011;51601;51.356;12.458;2022-10-19T10:02:02;8.53;;;2.80;;
65033;SDS011;51601;51.356;12.458;2022-10-19T10:06:26;11.27;;;2.75;;
65033;SDS011;51601;51.356;12.458;2022-10-19T10:10:43;8.40;;;3.22;;
65033;SDS011;51601;51.356;12.458;2022-10-19T10:15:01;7.83;;;3.17;;
65033;SDS011;51601;51.356;12.458;2022-10-19T10:19:17;8.85;;;3.33;;
65033;SDS011;51601;51.356;12.458;2022-10-19T10:23:36;11.52;;;3.70;;
65033;SDS011;51601;51.356;12.458;2022-10-19T10:27:54;10.60;;;3.80;;
65033;SDS011;51601;51.356;12.458;2022-10-19T10:32:10;9.73;;;2.97;;
65033;SDS011;51601;51.356;12.458;2022-10-19T10:36:28;8.75;;;3.00;;
65033;SDS011;51601;51.356;12.458;2022-10-19T10:40:48;9.18;;;2.15;;
65033;SDS011;51601;51.356;12.458;2022-10-19T10:45:03;7.33;;;2.37;;
65033;SDS011;51601;51.356;12.458;2022-10-19T10:49:29;9.43;;;2.28;;
65033;SDS011;51601;51.356;12.458;2022-10-19T10:53:47;5.80;;;1.90;;
65033;SDS011;51601;51.356;12.458;2022-10-19T10:58:04;9.53;;;2.00;;
65033;SDS011;51601;51.356;12.458;2022-10-19T11:02:27;7.57;;;1.80;;
65033;SDS011;51601;51.356;12.458;2022-10-19T11:06:58;9.60;;;1.65;;
65033;SDS011;51601;51.356;12.458;2022-10-19T11:11:18;7.68;;;2.28;;
65033;SDS011;51601;51.356;12.458;2022-10-19T11:15:36;6.83;;;1.70;;
65033;SDS011;51601;51.356;12.458;2022-10-19T11:19:56;10.18;;;1.88;;
65033;SDS011;51601;51.356;12.458;2022-10-19T11:24:12;7.80;;;1.88;;
65033;SDS011;51601;51.356;12.458;2022-10-19T11:28:41;6.17;;;1.40;;
65033;SDS011;51601;51.356;12.458;2022-10-19T11:33:03;6.32;;;1.50;;
65033;SDS011;51601;51.356;12.458;2022-10-19T11:37:23;6.60;;;1.90;;
65033;SDS011;51601;51.356;12.458;2022-10-19T11:41:43;9.73;;;1.80;;
65033;SDS011;51601;51.356;12.458;2022-10-19T11:46:04;7.22;;;1.88;;
65033;SDS011;51601;51.356;12.458;2022-10-19T11:50:29;8.52;;;1.75;;
65033;SDS011;51601;51.356;12.458;2022-10-19T11:54:52;4.95;;;1.40;;
65033;SDS011;51601;51.356;12.458;2022-10-19T11:59:16;6.07;;;1.47;;
65033;SDS011;51601;51.356;12.458;2022-10-19T12:03:44;4.90;;;1.70;;
65033;SDS011;51601;51.356;12.458;2022-10-19T12:08:18;6.25;;;1.95;;
65033;SDS011;51601;51.356;12.458;2022-10-19T12:12:43;6.10;;;1.50;;
65033;SDS011;51601;51.356;12.458;2022-10-19T12:17:00;5.93;;;1.65;;
65033;SDS011;51601;51.356;12.458;2022-10-19T12:21:21;7.03;;;2.00;;
65033;SDS011;51601;51.356;12.458;2022-10-19T12:25:40;5.60;;;1.80;;
65033;SDS011;51601;51.356;12.458;2022-10-19T12:29:57;9.68;;;1.60;;
65033;SDS011;51601;51.356;12.458;2022-10-19T12:34:21;6.60;;;1.73;;
65033;SDS011;51601;51.356;12.458;2022-10-19T12:38:46;6.43;;;1.73;;
65033;SDS011;51601;51.356;12.458;2022-10-19T12:43:12;5.47;;;1.30;;
65033;SDS011;51601;51.356;12.458;2022-10-19T12:47:31;8.10;;;1.40;;
65033;SDS011;51601;51.356;12.458;2022-10-19T12:51:45;4.53;;;1.38;;
65033;SDS011;51601;51.356;12.458;2022-10-19T12:56:01;6.17;;;1.50;;
65033;SDS011;51601;51.356;12.458;2022-10-19T13:00:18;8.52;;;1.40;;
65033;SDS011;51601;51.356;12.458;2022-10-19T13:04:34;5.70;;;1.50;;
65033;SDS011;51601;51.356;12.458;2022-10-19T13:08:53;6.50;;;1.50;;
65033;SDS011;51601;51.356;12.458;2022-10-19T13:18:07;3.53;;;1.40;;
65033;SDS011;51601;51.356;12.458;2022-10-19T13:22:25;6.97;;;1.60;;
65033;SDS011;51601;51.356;12.458;2022-10-19T13:26:40;5.27;;;1.40;;
65033;SDS011;51601;51.356;12.458;2022-10-19T13:30:58;5.80;;;1.23;;
65033;SDS011;51601;51.356;12.458;2022-10-19T13:35:29;6.78;;;1.45;;
65033;SDS011;51601;51.356;12.458;2022-10-19T13:39:44;6.03;;;1.33;;
65033;SDS011;51601;51.356;12.458;2022-10-19T13:44:00;4.68;;;1.30;;
65033;SDS011;51601;51.356;12.458;2022-10-19T13:48:17;5.90;;;1.20;;
65033;SDS011;51601;51.356;12.458;2022-10-19T13:52:58;6.17;;;1.57;;
65033;SDS011;51601;51.356;12.458;2022-10-19T13:57:29;3.90;;;1.25;;
65033;SDS011;51601;51.356;12.458;2022-10-19T14:07:11;5.05;;;1.13;;
65033;SDS011;51601;51.356;12.458;2022-10-19T14:11:29;4.93;;;1.33;;
65033;SDS011;51601;51.356;12.458;2022-10-19T14:15:48;3.80;;;1.27;;
65033;SDS011;51601;51.356;12.458;2022-10-19T14:20:17;4.10;;;1.20;;
65033;SDS011;51601;51.356;12.458;2022-10-19T14:24:40;6.07;;;1.53;;
65033;SDS011;51601;51.356;12.458;2022-10-19T14:28:55;5.70;;;1.40;;
65033;SDS011;51601;51.356;12.458;2022-10-19T14:33:10;4.85;;;1.50;;
65033;SDS011;51601;51.356;12.458;2022-10-19T14:37:28;5.57;;;1.40;;
65033;SDS011;51601;51.356;12.458;2022-10-19T14:41:44;5.45;;;1.45;;
65033;SDS011;51601;51.356;12.458;2022-10-19T14:46:01;4.75;;;1.60;;
65033;SDS011;51601;51.356;12.458;2022-10-19T14:50:22;4.80;;;1.40;;
65033;SDS011;51601;51.356;12.458;2022-10-19T14:54:41;4.10;;;1.30;;
65033;SDS011;51601;51.356;12.458;2022-10-19T14:58:59;5.70;;;1.42;;
65033;SDS011;51601;51.356;12.458;2022-10-19T15:03:18;4.60;;;1.45;;
65033;SDS011;51601;51.356;12.458;2022-10-19T15:07:35;4.63;;;1.50;;
65033;SDS011;51601;51.356;12.458;2022-10-19T15:11:51;3.97;;;1.10;;
65033;SDS011;51601;51.356;12.458;2022-10-19T15:21:02;4.87;;;1.23;;
65033;SDS011;51601;51.356;12.458;2022-10-19T15:26:11;2.90;;;0.98;;
65033;SDS011;51601;51.356;12.458;2022-10-19T15:30:29;2.72;;;1.17;;
65033;SDS011;51601;51.356;12.458;2022-10-19T15:34:44;3.85;;;1.30;;
65033;SDS011;51601;51.356;12.458;2022-10-19T15:39:00;4.20;;;1.00;;
65033;SDS011;51601;51.356;12.458;2022-10-19T15:43:37;2.83;;;1.00;;
65033;SDS011;51601;51.356;12.458;2022-10-19T15:57:28;5.43;;;1.05;;
65033;SDS011;51601;51.356;12.458;2022-10-19T16:01:46;4.07;;;1.20;;
65033;SDS011;51601;51.356;12.458;2022-10-19T16:06:07;6.50;;;1.30;;
65033;SDS011;51601;51.356;12.458;2022-10-19T16:10:22;6.35;;;1.38;;
65033;SDS011;51601;51.356;12.458;2022-10-19T16:14:38;4.28;;;1.23;;
65033;SDS011;51601;51.356;12.458;2022-10-19T16:18:52;3.05;;;1.20;;
65033;SDS011;51601;51.356;12.458;2022-10-19T16:23:06;3.40;;;1.10;;
65033;SDS011;51601;51.356;12.458;2022-10-19T16:27:20;3.78;;;1.33;;
65033;SDS011;51601;51.356;12.458;2022-10-19T16:31:35;4.13;;;1.50;;
65033;SDS011;51601;51.356;12.458;2022-10-19T16:35:49;5.03;;;1.60;;
65033;SDS011;51601;51.356;12.458;2022-10-19T16:40:03;4.75;;;1.55;;
65033;SDS011;51601;51.356;12.458;2022-10-19T16:44:18;4.35;;;1.50;;
65033;SDS011;51601;51.356;12.458;2022-10-19T16:48:33;5.27;;;1.60;;
65033;SDS011;51601;51.356;12.458;2022-10-19T16:52:48;7.25;;;1.90;;
65033;SDS011;51601;51.356;12.458;2022-10-19T16:57:16;6.63;;;2.22;;
65033;SDS011;51601;51.356;12.458;2022-10-19T17:01:30;7.13;;;2.70;;
65033;SDS011;51601;51.356;12.458;2022-10-19T17:05:47;7.00;;;2.20;;
65033;SDS011;51601;51.356;12.458;2022-10-19T17:10:01;8.25;;;2.47;;
65033;SDS011;51601;51.356;12.458;2022-10-19T17:14:15;10.43;;;3.22;;
65033;SDS011;51601;51.356;12.458;2022-10-19T17:18:29;7.30;;;3.00;;
65033;SDS011;51601;51.356;12.458;2022-10-19T17:22:44;7.70;;;2.20;;
65033;SDS011;51601;51.356;12.458;2022-10-19T17:26:59;8.35;;;2.47;;
65033;SDS011;51601;51.356;12.458;2022-10-19T17:31:14;8.10;;;3.20;;
65033;SDS011;51601;51.356;12.458;2022-10-19T17:35:41;15.10;;;6.40;;
65033;SDS011;51601;51.356;12.458;2022-10-19T17:39:56;7.38;;;2.90;;
65033;SDS011;51601;51.356;12.458;2022-10-19T17:44:10;10.88;;;3.47;;
65033;SDS011;51601;51.356;12.458;2022-10-19T17:48:24;10.97;;;4.07;;
65033;SDS011;51601;51.356;12.458;2022-10-19T17:52:38;8.13;;;3.60;;
65033;SDS011;51601;51.356;12.458;2022-10-19T17:56:53;8.32;;;3.55;;
65033;SDS011;51601;51.356;12.458;2022-10-19T18:01:07;9.27;;;3.83;;
65033;SDS011;51601;51.356;12.458;2022-10-19T18:05:22;7.93;;;3.53;;
65033;SDS011;51601;51.356;12.458;2022-10-19T18:09:36;11.55;;;4.45;;
65033;SDS011;51601;51.356;12.458;2022-10-19T18:13:53;10.27;;;4.77;;
65033;SDS011;51601;51.356;12.458;2022-10-19T18:18:07;10.55;;;5.00;;
65033;SDS011;51601;51.356;12.458;2022-10-19T18:22:21;11.07;;;5.10;;
65033;SDS011;51601;51.356;12.458;2022-10-19T18:26:35;11.65;;;5.20;;
65033;SDS011;51601;51.356;12.458;2022-10-19T18:30:50;12.43;;;5.57;;
65033;SDS011;51601;51.356;12.458;2022-10-19T18:35:04;11.10;;;5.57;;
65033;SDS011;51601;51.356;12.458;2022-10-19T18:39:19;13.20;;;6.15;;
65033;SDS011;51601;51.356;12.458;2022-10-19T18:43:34;11.13;;;6.00;;
65033;SDS011;51601;51.356;12.458;2022-10-19T18:47:49;12.43;;;7.00;;
65033;SDS011;51601;51.356;12.458;2022-10-19T18:52:02;11.73;;;6.65;;
65033;SDS011;51601;51.356;12.458;2022-10-19T18:56:17;14.43;;;7.30;;
65033;SDS011;51601;51.356;12.458;2022-10-19T19:00:31;12.32;;;6.95;;
65033;SDS011;51601;51.356;12.458;2022-10-19T19:04:46;14.57;;;7.57;;
65033;SDS011;51601;51.356;12.458;2022-10-19T19:09:01;13.95;;;7.45;;
65033;SDS011;51601;51.356;12.458;2022-10-19T19:13:16;11.90;;;5.87;;
65033;SDS011;51601;51.356;12.458;2022-10-19T19:17:30;10.35;;;6.03;;
65033;SDS011;51601;51.356;12.458;2022-10-19T19:21:45;11.75;;;5.60;;
65033;SDS011;51601;51.356;12.458;2022-10-19T19:26:01;10.13;;;5.60;;
65033;SDS011;51601;51.356;12.458;2022-10-19T19:30:15;9.77;;;5.20;;
65033;SDS011;51601;51.356;12.458;2022-10-19T19:34:29;13.15;;;5.55;;
65033;SDS011;51601;51.356;12.458;2022-10-19T19:38:44;11.70;;;5.13;;
65033;SDS011;51601;51.356;12.458;2022-10-19T19:42:59;11.90;;;6.07;;
65033;SDS011;51601;51.356;12.458;2022-10-19T19:47:13;12.30;;;6.65;;
65033;SDS011;51601;51.356;12.458;2022-10-19T19:51:30;14.50;;;7.15;;
65033;SDS011;51601;51.356;12.458;2022-10-19T19:55:46;13.73;;;5.47;;
65033;SDS011;51601;51.356;12.458;2022-10-19T20:00:01;12.40;;;5.68;;
65033;SDS011;51601;51.356;12.458;2022-10-19T20:04:22;20.35;;;10.45;;
65033;SDS011;51601;51.356;12.458;2022-10-19T20:08:36;14.00;;;7.20;;
65033;SDS011;51601;51.356;12.458;2022-10-19T20:12:51;13.88;;;7.60;;
65033;SDS011;51601;51.356;12.458;2022-10-19T20:17:05;14.45;;;8.27;;
65033;SDS011;51601;51.356;12.458;2022-10-19T20:21:19;16.70;;;8.77;;
65033;SDS011;51601;51.356;12.458;2022-10-19T20:25:36;14.82;;;8.55;;
65033;SDS011;51601;51.356;12.458;2022-10-19T20:29:51;14.02;;;7.93;;
65033;SDS011;51601;51.356;12.458;2022-10-19T20:34:10;16.05;;;9.60;;
65033;SDS011;51601;51.356;12.458;2022-10-19T20:38:25;16.83;;;9.90;;
65033;SDS011;51601;51.356;12.458;2022-10-19T20:42:39;17.08;;;9.23;;
65033;SDS011;51601;51.356;12.458;2022-10-19T20:46:54;15.88;;;9.15;;
65033;SDS011;51601;51.356;12.458;2022-10-19T20:51:09;14.77;;;7.67;;
65033;SDS011;51601;51.356;12.458;2022-10-19T20:55:24;14.43;;;7.28;;
65033;SDS011;51601;51.356;12.458;2022-10-19T20:59:38;14.25;;;7.47;;
65033;SDS011;51601;51.356;12.458;2022-10-19T21:03:54;14.20;;;7.50;;
65033;SDS011;51601;51.356;12.458;2022-10-19T21:08:09;15.40;;;8.90;;
65033;SDS011;51601;51.356;12.458;2022-10-19T21:12:26;15.27;;;8.95;;
65033;SDS011;51601;51.356;12.458;2022-10-19T21:16:40;13.80;;;8.40;;
65033;SDS011;51601;51.356;12.458;2022-10-19T21:20:55;16.27;;;8.60;;
65033;SDS011;51601;51.356;12.458;2022-10-19T21:25:09;14.77;;;7.90;;
65033;SDS011;51601;51.356;12.458;2022-10-19T21:29:23;14.68;;;8.57;;
65033;SDS011;51601;51.356;12.458;2022-10-19T21:33:40;17.57;;;9.17;;
65033;SDS011;51601;51.356;12.458;2022-10-19T21:37:55;16.70;;;9.23;;
65033;SDS011;51601;51.356;12.458;2022-10-19T21:42:09;16.88;;;8.48;;
65033;SDS011;51601;51.356;12.458;2022-10-19T21:46:23;14.83;;;8.37;;
65033;SDS011;51601;51.356;12.458;2022-10-19T21:50:37;13.30;;;7.65;;
65033;SDS011;51601;51.356;12.458;2022-10-19T21:54:53;14.48;;;8.55;;
65033;SDS011;51601;51.356;12.458;2022-10-19T21:59:07;10.55;;;5.85;;
65033;SDS011;51601;51.356;12.458;2022-10-19T22:03:21;11.07;;;6.30;;
65033;SDS011;51601;51.356;12.458;2022-10-19T22:07:35;11.18;;;6.05;;
65033;SDS011;51601;51.356;12.458;2022-10-19T22:11:50;12.90;;;5.05;;
65033;SDS011;51601;51.356;12.458;2022-10-19T22:16:05;10.50;;;5.77;;
65033;SDS011;51601;51.356;12.458;2022-10-19T22:20:21;11.52;;;5.50;;
65033;SDS011;51601;51.356;12.458;2022-10-19T22:24:35;12.30;;;5.22;;
65033;SDS011;51601;51.356;12.458;2022-10-19T22:28:50;12.93;;;5.30;;
65033;SDS011;51601;51.356;12.458;2022-10-19T22:33:05;9.73;;;5.40;;
65033;SDS011;51601;51.356;12.458;2022-10-19T22:37:19;12.50;;;6.20;;
65033;SDS011;51601;51.356;12.458;2022-10-19T22:41:33;13.90;;;5.65;;
65033;SDS011;51601;51.356;12.458;2022-10-19T22:45:48;10.93;;;5.57;;
65033;SDS011;51601;51.356;12.458;2022-10-19T22:50:04;10.32;;;5.40;;
65033;SDS011;51601;51.356;12.458;2022-10-19T22:54:20;11.95;;;5.20;;
65033;SDS011;51601;51.356;12.458;2022-10-19T22:58:36;11.37;;;5.77;;
65033;SDS011;51601;51.356;12.458;2022-10-19T23:02:51;11.07;;;6.05;;
65033;SDS011;51601;51.356;12.458;2022-10-19T23:07:05;11.48;;;5.47;;
65033;SDS011;51601;51.356;12.458;2022-10-19T23:11:19;9.83;;;5.37;;
65033;SDS011;51601;51.356;12.458;2022-10-19T23:15:33;10.32;;;5.68;;
65033;SDS011;51601;51.356;12.458;2022-10-19T23:19:53;12.20;;;5.28;;
65033;SDS011;51601;51.356;12.458;2022-10-19T23:24:07;11.30;;;5.60;;
65033;SDS011;51601;51.356;12.458;2022-10-19T23:28:21;11.80;;;5.27;;
65033;SDS011;51601;51.356;12.458;2022-10-19T23:32:34;10.75;;;5.35;;
65033;SDS011;51601;51.356;12.458;2022-10-19T23:36:50;9.30;;;4.45;;
65033;SDS011;51601;51.356;12.458;2022-10-19T23:41:03;9.23;;;4.23;;
65033;SDS011;51601;51.356;12.458;2022-10-19T23:45:17;9.13;;;4.80;;
65033;SDS011;51601;51.356;12.458;2022-10-19T23:49:31;9.50;;;4.55;;
65033;SDS011;51601;51.356;12.458;2022-10-19T23:53:47;10.07;;;4.77;;
65033;SDS011;51601;51.356;12.458;2022-10-19T23:58:02;8.90;;;4.60;;
